Hovedside
METAR-TAF:

METAR-TAF

Lufthavner :

Mardin, Tyrkia

breddegrad: 37-13-58N, lengdegrad: 40-38-26E, høyde over havet: 527 m

Gjeldene værobservasjon

Denne rapporten ble laget for 5 timer og 36 minutter siden, klokken 15:50 UTC
Vind 10 kt fra Nord-nordøst, skiftende mellom Nord og Nordøst
Temperatur 37°C
Luftfuktighet 14%
Trykk 1001 hPa
Sikt 10 km eller mer
ingen skyer under 1500 m og ingen bygeskyer

METAR: LTCR 041550Z 03010KT 350V050 CAVOK 37/05 Q1001

Tid: 00:26 (21:26 UTC)

Varsel

Denne rapporten ble laget for 7 timer og 46 minutter siden, klokken 13:40 UTC
Varsel gyldig fra 04. klokken 15 UTC til 04. klokken 24 UTC
Vind 4 kt fra Nord
Sikt 10 km eller mer
ingen skyer under 1500 m og ingen bygeskyer
Blir
fra 04. klokken 18 UTC til 04. klokken 20 UTC
Vind 14 kt fra Nord

TAF: LTCR 041340Z 0415/0424 01004KT CAVOK BECMG 0418/0420 01014KT

Værobservasjoner og værvarsel for over 4000 flyplasser (METAR- og TAF-rapporter).

Tilgjengelige stasjoner er representert av de røde og gule prikkene på kartet.

Hold musepekeren over prikken for å se navnet på stasjonen.

Klikk så for å se værobservasjoner og -varsler.

For å forandre kartet kan du klikke på den grønne knappen med svart kryss for å zoome inn, på den grønne knappen med strek for å zoome ut, eller på de grønne pilene for å se tilstøtende kart.


METAR-TAF: